Seminole, Alabama
Current Conditions -  °F | °C
As of 1:56 PM on Friday 19 Dec 2014 (Local Time) from KNPA Reporting Station
Overcast Overcast  
Wind Chill: 53°   Ceiling: 10000
Heat Index: 53°   Visibility: 10mi
Dew Point: 47°   Wind: 7mph
Humidity: 80%   Direction: 40°NE
Pressure: 30.07"   Gusts: NA
Location:  30.52°N, 87.47°W
Report Text: KNPA 191956Z 04006KT 10SM FEW020 SCT050 OVC100 12/08 A3007 RMK AO2 SLP185 T01170083
Loading
Personal Weather Stations






























Interactive Weather Map New forecast layout! Learn more

10-Day Weather Forecast

Advertisements
Track Severe Weather on mobile